createdAt,value
2023-04-09T00:02:25.401Z,60.20
2023-04-09T00:04:52.791Z,60.30
2023-04-09T00:07:19.900Z,60.30
2023-04-09T00:09:46.925Z,60.40
2023-04-09T00:12:14.012Z,60.50
2023-04-09T00:14:41.149Z,60.50
2023-04-09T00:17:08.191Z,60.40
2023-04-09T00:19:35.648Z,60.30
2023-04-09T00:22:02.785Z,60.20
2023-04-09T00:24:29.827Z,60.10
2023-04-09T00:26:57.062Z,60.00
2023-04-09T00:29:24.123Z,60.00
2023-04-09T00:31:51.300Z,59.80
2023-04-09T00:34:18.511Z,59.70
2023-04-09T00:36:45.671Z,59.50
2023-04-09T00:39:12.864Z,59.50
2023-04-09T00:41:39.967Z,59.80
2023-04-09T00:44:07.021Z,60.10
2023-04-09T00:46:34.063Z,60.60
2023-04-09T00:49:01.118Z,60.70
2023-04-09T00:51:28.873Z,60.70
2023-04-09T00:53:55.918Z,60.60
2023-04-09T00:56:23.421Z,60.20
2023-04-09T00:58:50.796Z,60.20
2023-04-09T01:01:18.183Z,60.40
2023-04-09T01:03:45.589Z,60.30
2023-04-09T01:06:22.750Z,60.00
2023-04-09T01:09:04.503Z,59.80
2023-04-09T01:11:51.005Z,59.60
2023-04-09T01:14:41.837Z,59.60
2023-04-09T01:17:16.013Z,59.70
2023-04-09T01:20:05.937Z,59.70
2023-04-09T01:23:03.571Z,59.80
2023-04-09T01:25:55.154Z,59.80
2023-04-09T01:28:29.851Z,59.80
2023-04-09T01:31:04.756Z,60.00
2023-04-09T01:33:32.515Z,60.20
2023-04-09T01:35:59.671Z,60.00
2023-04-09T01:38:26.838Z,60.30
2023-04-09T01:40:55.091Z,60.60
2023-04-09T01:43:22.095Z,60.60
2023-04-09T01:45:49.224Z,60.50
2023-04-09T01:48:16.420Z,60.40
2023-04-09T01:50:43.548Z,60.30
2023-04-09T01:53:11.225Z,60.30
2023-04-09T01:55:38.381Z,60.70
2023-04-09T01:58:05.537Z,60.80
2023-04-09T02:00:38.431Z,60.80
2023-04-09T02:03:08.295Z,60.90
2023-04-09T02:05:41.917Z,60.90
2023-04-09T02:08:10.053Z,60.70
2023-04-09T02:10:37.221Z,60.70
2023-04-09T02:13:04.730Z,60.60
2023-04-09T02:15:32.239Z,60.70
2023-04-09T02:17:59.614Z,60.50
2023-04-09T02:20:27.005Z,61.20
2023-04-09T02:22:54.259Z,62.00
2023-04-09T02:25:23.806Z,62.50
2023-04-09T02:27:51.164Z,62.60
2023-04-09T02:30:18.338Z,62.60
2023-04-09T02:32:45.590Z,62.50
2023-04-09T02:35:13.030Z,62.10
2023-04-09T02:37:40.258Z,62.30
2023-04-09T02:40:09.879Z,62.50
2023-04-09T02:42:37.097Z,62.80
2023-04-09T02:45:04.433Z,62.90
2023-04-09T02:47:31.451Z,62.90
2023-04-09T02:49:58.486Z,62.70
2023-04-09T02:52:26.311Z,62.30
2023-04-09T02:54:53.661Z,62.30
2023-04-09T02:57:21.047Z,62.50
2023-04-09T02:59:48.175Z,62.30
2023-04-09T03:02:15.280Z,62.40
2023-04-09T03:04:42.355Z,62.50
2023-04-09T03:07:09.465Z,62.90
2023-04-09T03:09:36.905Z,62.60
2023-04-09T03:12:04.149Z,62.70
2023-04-09T03:14:31.214Z,62.80
2023-04-09T03:16:58.327Z,62.90
2023-04-09T03:19:25.367Z,63.20
2023-04-09T03:21:52.458Z,63.30
2023-04-09T03:24:19.671Z,63.10
2023-04-09T03:26:46.860Z,63.10
2023-04-09T03:29:14.011Z,63.30
2023-04-09T03:31:41.380Z,63.50
2023-04-09T03:34:08.613Z,63.80
2023-04-09T03:36:35.625Z,64.50
2023-04-09T03:39:03.695Z,64.90
2023-04-09T03:41:30.747Z,64.70
2023-04-09T03:43:58.036Z,64.30
2023-04-09T03:46:25.658Z,64.20
2023-04-09T03:48:52.997Z,64.40
2023-04-09T03:51:20.198Z,64.50
2023-04-09T03:53:47.309Z,64.70
2023-04-09T03:56:14.385Z,64.90
2023-04-09T03:58:41.493Z,65.00
2023-04-09T04:01:08.562Z,65.10
2023-04-09T04:03:36.014Z,65.20
2023-04-09T04:06:03.649Z,65.30
2023-04-09T04:08:30.732Z,65.00
2023-04-09T04:11:04.142Z,64.80
2023-04-09T04:13:31.270Z,64.40
2023-04-09T04:15:58.401Z,64.10
2023-04-09T04:18:25.617Z,64.00
2023-04-09T04:20:52.679Z,63.70
2023-04-09T04:23:19.771Z,63.40
2023-04-09T04:25:46.849Z,63.50
2023-04-09T04:28:14.078Z,63.50
2023-04-09T04:30:43.957Z,63.50
2023-04-09T04:33:11.193Z,63.20
2023-04-09T04:35:38.444Z,63.10
2023-04-09T04:38:05.528Z,62.90
2023-04-09T04:40:32.602Z,62.70
2023-04-09T04:42:59.683Z,62.60
2023-04-09T04:45:26.789Z,62.80
2023-04-09T04:47:54.118Z,62.80
2023-04-09T04:50:21.250Z,62.80
2023-04-09T04:52:48.263Z,62.60
2023-04-09T04:55:15.513Z,62.40
2023-04-09T04:57:42.713Z,62.30
2023-04-09T05:00:10.295Z,62.30
2023-04-09T05:02:37.593Z,62.40
2023-04-09T05:05:06.828Z,62.40
2023-04-09T05:07:34.413Z,62.60
2023-04-09T05:10:01.562Z,62.80
2023-04-09T05:12:32.202Z,63.00
2023-04-09T05:14:59.251Z,63.00
2023-04-09T05:17:26.412Z,62.80
2023-04-09T05:19:54.135Z,62.80
2023-04-09T05:22:21.293Z,62.60
2023-04-09T05:24:49.767Z,62.70
2023-04-09T05:27:17.046Z,62.40
2023-04-09T05:29:44.093Z,62.40
2023-04-09T05:32:11.353Z,62.70
2023-04-09T05:34:38.707Z,62.70
2023-04-09T05:37:06.068Z,62.80
2023-04-09T05:39:34.295Z,62.80
2023-04-09T05:42:02.023Z,62.20
2023-04-09T05:44:29.347Z,62.20
2023-04-09T05:46:56.886Z,62.10
2023-04-09T05:49:24.687Z,61.70
2023-04-09T05:51:52.212Z,61.70
2023-04-09T05:54:19.464Z,61.60
2023-04-09T05:56:48.574Z,61.30
2023-04-09T05:59:17.609Z,61.30
2023-04-09T06:01:44.912Z,61.30
2023-04-09T06:04:12.281Z,61.20
2023-04-09T06:06:39.530Z,61.20
2023-04-09T06:09:07.295Z,60.90
2023-04-09T06:11:34.543Z,60.60
2023-04-09T06:14:01.781Z,60.40
2023-04-09T06:16:28.959Z,60.10
2023-04-09T06:18:57.113Z,59.90
2023-04-09T06:21:24.429Z,60.00
2023-04-09T06:23:53.961Z,59.90
2023-04-09T06:26:24.190Z,59.80
2023-04-09T06:28:51.366Z,59.90
2023-04-09T06:31:18.554Z,59.70
2023-04-09T06:33:48.856Z,59.50
2023-04-09T06:36:17.937Z,59.50
2023-04-09T06:38:48.168Z,59.70
2023-04-09T06:41:19.480Z,59.60
2023-04-09T06:43:53.883Z,59.60
2023-04-09T06:46:28.906Z,59.80
2023-04-09T06:48:57.940Z,60.10
2023-04-09T06:51:30.286Z,60.20
2023-04-09T06:54:00.412Z,60.30
2023-04-09T06:56:28.416Z,60.60
2023-04-09T06:58:59.368Z,60.80
2023-04-09T07:01:28.248Z,60.90
2023-04-09T07:03:55.751Z,61.00
2023-04-09T07:06:25.145Z,61.00
2023-04-09T07:08:52.635Z,60.80
2023-04-09T07:11:19.786Z,61.00
2023-04-09T07:13:46.897Z,60.90
2023-04-09T07:16:14.094Z,60.90
2023-04-09T07:18:41.894Z,60.70
2023-04-09T07:21:11.262Z,61.20
2023-04-09T07:23:38.523Z,60.20
2023-04-09T07:26:16.452Z,59.80
2023-04-09T07:28:49.108Z,59.50
2023-04-09T07:31:30.351Z,59.70
2023-04-09T07:33:57.673Z,59.80
2023-04-09T07:36:24.989Z,59.10
2023-04-09T07:38:52.558Z,59.00
2023-04-09T07:41:20.102Z,58.70
2023-04-09T07:43:47.920Z,58.50
2023-04-09T07:46:22.101Z,58.30
2023-04-09T07:48:50.607Z,58.10
2023-04-09T07:51:23.325Z,57.60
2023-04-09T07:54:04.101Z,58.20
2023-04-09T07:57:03.511Z,57.40
2023-04-09T07:59:36.726Z,56.60
2023-04-09T08:02:14.321Z,56.00
2023-04-09T08:04:48.444Z,56.70
2023-04-09T08:07:20.916Z,56.90
2023-04-09T08:09:48.115Z,56.50
2023-04-09T08:12:15.349Z,55.40
2023-04-09T08:14:48.506Z,54.80
2023-04-09T08:17:18.574Z,54.20
2023-04-09T08:19:50.087Z,54.20
2023-04-09T08:22:17.448Z,53.90
2023-04-09T08:24:44.713Z,53.30
2023-04-09T08:27:12.470Z,53.40
2023-04-09T08:29:43.175Z,53.50
2023-04-09T08:32:13.031Z,53.60
2023-04-09T08:34:43.093Z,53.50
2023-04-09T08:37:10.172Z,53.10
2023-04-09T08:39:37.401Z,53.40
2023-04-09T08:42:04.930Z,53.80
2023-04-09T08:44:35.297Z,53.80
2023-04-09T08:47:02.861Z,53.80
2023-04-09T08:49:29.992Z,54.00
2023-04-09T08:51:57.458Z,54.30
2023-04-09T08:54:26.973Z,54.50
2023-04-09T08:56:54.603Z,54.40
2023-04-09T08:59:21.957Z,54.40
2023-04-09T09:01:54.765Z,54.30
2023-04-09T09:04:22.555Z,54.20
2023-04-09T09:06:49.800Z,54.50
2023-04-09T09:09:17.902Z,54.10
2023-04-09T09:11:46.331Z,53.40
2023-04-09T09:14:14.012Z,53.00
2023-04-09T09:16:45.211Z,52.60
2023-04-09T09:19:24.616Z,52.30
2023-04-09T09:22:02.034Z,52.10
2023-04-09T09:24:29.536Z,51.80
2023-04-09T09:26:59.202Z,52.00
2023-04-09T09:29:29.605Z,52.00
2023-04-09T09:32:00.080Z,51.80
2023-04-09T09:34:27.379Z,51.30
2023-04-09T09:36:54.963Z,51.30
2023-04-09T09:39:22.454Z,50.70
2023-04-09T09:41:49.619Z,50.60
2023-04-09T09:44:32.964Z,50.40
2023-04-09T09:47:00.146Z,50.20
2023-04-09T09:49:27.356Z,50.30
2023-04-09T09:51:55.122Z,50.30
2023-04-09T09:54:22.803Z,50.40
2023-04-09T09:56:49.836Z,51.10
2023-04-09T09:59:30.938Z,51.30
2023-04-09T10:02:01.873Z,52.10
2023-04-09T10:04:36.115Z,52.20
2023-04-09T10:07:04.936Z,52.80
2023-04-09T10:09:32.746Z,52.20
2023-04-09T10:12:00.461Z,52.20
2023-04-09T10:14:29.042Z,52.70
2023-04-09T10:16:56.334Z,53.00
2023-04-09T10:19:24.263Z,52.80
2023-04-09T10:22:06.104Z,52.90
2023-04-09T10:24:34.462Z,52.80
2023-04-09T10:27:17.071Z,53.30
2023-04-09T10:29:47.537Z,53.40
2023-04-09T10:32:26.772Z,53.50
2023-04-09T10:34:57.461Z,54.60
2023-04-09T10:37:28.796Z,54.20
2023-04-09T10:39:56.809Z,54.60
2023-04-09T10:42:27.520Z,54.40
2023-04-09T10:45:11.723Z,54.60
2023-04-09T10:47:39.913Z,55.10
2023-04-09T10:50:26.298Z,56.00
2023-04-09T10:52:57.634Z,56.20
2023-04-09T10:55:31.784Z,56.10
2023-04-09T10:57:59.179Z,55.90
2023-04-09T11:00:26.455Z,56.00
2023-04-09T11:03:22.300Z,56.10
2023-04-09T11:05:53.427Z,56.20
2023-04-09T11:08:22.396Z,56.90
2023-04-09T11:10:51.995Z,57.10
2023-04-09T11:13:21.451Z,57.20
2023-04-09T11:15:48.747Z,57.00
2023-04-09T11:18:23.954Z,56.80
2023-04-09T11:20:54.355Z,56.80
2023-04-09T11:23:21.694Z,57.00
2023-04-09T11:25:49.979Z,57.30
2023-04-09T11:28:20.089Z,57.60
2023-04-09T11:30:47.406Z,57.90
2023-04-09T11:33:16.004Z,58.00
2023-04-09T11:35:44.894Z,57.90
2023-04-09T11:38:12.798Z,57.70
2023-04-09T11:40:50.938Z,57.80
2023-04-09T11:43:18.436Z,57.80
2023-04-09T11:45:50.912Z,58.10
2023-04-09T11:48:23.777Z,58.10
2023-04-09T11:50:51.379Z,58.20
2023-04-09T11:53:22.521Z,57.70
2023-04-09T11:55:53.422Z,57.40
2023-04-09T11:58:25.770Z,57.20
2023-04-09T12:00:58.950Z,56.90
2023-04-09T12:03:31.145Z,56.50
2023-04-09T12:06:01.709Z,56.20
2023-04-09T12:08:28.847Z,56.30
2023-04-09T12:10:56.130Z,56.10
2023-04-09T12:13:27.477Z,56.00
2023-04-09T12:18:23.928Z,55.50
2023-04-09T12:20:51.173Z,55.60
2023-04-09T12:23:20.128Z,55.90
2023-04-09T12:25:51.046Z,56.00
2023-04-09T12:28:18.985Z,55.80
2023-04-09T12:30:49.301Z,55.20
2023-04-09T12:33:30.480Z,55.00
2023-04-09T12:36:01.724Z,55.00
2023-04-09T12:38:35.221Z,54.90
2023-04-09T12:41:02.688Z,54.60
2023-04-09T12:43:30.013Z,54.60
2023-04-09T12:45:58.266Z,54.70
2023-04-09T12:48:25.729Z,54.30
2023-04-09T12:50:52.863Z,54.20
2023-04-09T12:53:20.025Z,54.00
2023-04-09T12:55:49.800Z,53.70
2023-04-09T12:58:16.935Z,53.50
2023-04-09T13:00:44.714Z,53.10
2023-04-09T13:03:12.414Z,53.20
2023-04-09T13:05:50.142Z,53.00
2023-04-09T13:08:19.960Z,52.40
2023-04-09T13:14:08.362Z,52.70
2023-04-09T13:16:38.915Z,52.70
2023-04-09T13:19:09.146Z,52.50
2023-04-09T13:21:36.446Z,52.60
2023-04-09T13:24:04.534Z,52.60
2023-04-09T13:26:32.729Z,52.60
2023-04-09T13:29:29.066Z,52.70
2023-04-09T13:35:32.679Z,52.60
2023-04-09T13:38:00.130Z,52.60
2023-04-09T13:40:27.634Z,52.80
2023-04-09T13:43:05.565Z,52.70
2023-04-09T13:45:36.042Z,52.80
2023-04-09T13:48:03.395Z,52.80
2023-04-09T13:50:34.166Z,53.20
2023-04-09T13:53:07.709Z,53.20
2023-04-09T13:55:36.184Z,53.30
2023-04-09T13:58:03.524Z,53.40
2023-04-09T14:00:36.755Z,53.40
2023-04-09T14:03:04.934Z,53.70
2023-04-09T14:05:53.085Z,54.30
2023-04-09T14:08:20.619Z,54.40
2023-04-09T14:10:50.276Z,54.70
2023-04-09T14:13:23.817Z,55.10
2023-04-09T14:15:54.811Z,55.00
2023-04-09T14:18:25.454Z,55.00
2023-04-09T14:20:55.088Z,55.10
2023-04-09T14:23:37.018Z,55.10
2023-04-09T14:26:08.145Z,55.10
2023-04-09T14:29:01.191Z,55.30
2023-04-09T14:31:32.746Z,55.30
2023-04-09T14:34:02.424Z,55.60
2023-04-09T14:36:29.968Z,55.80
2023-04-09T14:38:57.991Z,56.20
2023-04-09T14:41:26.100Z,56.10
2023-04-09T14:43:53.470Z,56.10
2023-04-09T14:46:20.857Z,56.10
2023-04-09T14:48:48.099Z,56.20
2023-04-09T14:51:16.050Z,55.90
2023-04-09T14:53:55.956Z,55.80
2023-04-09T14:56:23.526Z,55.90
2023-04-09T14:58:51.122Z,55.90
2023-04-09T15:01:18.449Z,56.30
2023-04-09T15:03:48.953Z,56.20
2023-04-09T15:06:25.360Z,56.40
2023-04-09T15:08:52.807Z,56.40
2023-04-09T15:11:23.030Z,56.30
2023-04-09T15:13:54.348Z,56.50
2023-04-09T15:16:23.194Z,56.80
2023-04-09T15:18:52.694Z,57.10
2023-04-09T15:21:21.107Z,57.20
2023-04-09T15:23:50.194Z,56.60
2023-04-09T15:26:17.427Z,56.30
2023-04-09T15:28:44.589Z,56.20
2023-04-09T15:31:11.925Z,56.20
2023-04-09T15:33:39.169Z,55.90
2023-04-09T15:36:09.068Z,55.70
2023-04-09T15:38:36.401Z,55.70
2023-04-09T15:41:04.948Z,56.00
2023-04-09T15:43:35.140Z,56.00
2023-04-09T15:46:09.592Z,56.40
2023-04-09T15:48:37.122Z,56.30
2023-04-09T15:51:08.229Z,55.90
2023-04-09T15:53:35.488Z,56.20
2023-04-09T15:56:05.706Z,56.00
2023-04-09T15:58:33.047Z,56.20
2023-04-09T16:01:01.533Z,56.40
2023-04-09T16:03:32.134Z,56.70
2023-04-09T16:06:04.283Z,56.70
2023-04-09T16:08:31.523Z,56.70
2023-04-09T16:10:58.896Z,57.00
2023-04-09T16:13:26.680Z,56.70
2023-04-09T16:16:09.467Z,56.50
2023-04-09T16:19:09.525Z,56.30
2023-04-09T16:21:47.234Z,56.10
2023-04-09T16:24:33.318Z,56.10
2023-04-09T16:27:03.620Z,56.30
2023-04-09T16:29:37.185Z,56.30
2023-04-09T16:32:09.992Z,56.40
2023-04-09T16:34:42.773Z,56.60
2023-04-09T16:37:11.272Z,57.00
2023-04-09T16:39:41.570Z,57.10
2023-04-09T16:42:11.722Z,57.30
2023-04-09T16:44:39.089Z,57.60
2023-04-09T16:47:06.554Z,57.80
2023-04-09T16:49:33.619Z,58.20
2023-04-09T16:52:15.481Z,58.50
2023-04-09T16:54:42.722Z,58.80
2023-04-09T16:57:11.201Z,59.10
2023-04-09T16:59:40.837Z,59.40
2023-04-09T17:02:11.127Z,59.50
2023-04-09T17:04:41.461Z,59.70
2023-04-09T17:07:09.035Z,60.00
2023-04-09T17:09:36.248Z,60.40
2023-04-09T17:12:03.397Z,60.60
2023-04-09T17:14:34.735Z,60.50
2023-04-09T17:17:02.912Z,60.30
2023-04-09T17:19:30.477Z,60.10
2023-04-09T17:21:57.834Z,60.00
2023-04-09T17:24:25.424Z,59.80
2023-04-09T17:26:52.624Z,59.80
2023-04-09T17:29:29.077Z,59.70
2023-04-09T17:31:56.302Z,59.70
2023-04-09T17:34:24.450Z,59.70
2023-04-09T17:36:57.624Z,60.30
2023-04-09T17:39:25.196Z,59.60
2023-04-09T17:41:56.460Z,59.70
2023-04-09T17:44:25.119Z,59.70
2023-04-09T17:46:52.583Z,59.60
2023-04-09T17:49:19.771Z,59.40
2023-04-09T17:51:47.167Z,59.20
2023-04-09T17:54:15.009Z,59.00
2023-04-09T17:56:42.195Z,58.90
2023-04-09T17:59:09.473Z,58.90
2023-04-09T18:01:36.835Z,58.70
2023-04-09T18:04:04.749Z,58.70
2023-04-09T18:06:32.352Z,58.70
2023-04-09T18:08:59.733Z,58.50
2023-04-09T18:11:27.315Z,58.60
2023-04-09T18:14:02.505Z,58.50
2023-04-09T18:16:30.895Z,58.40
2023-04-09T18:19:01.169Z,58.40
2023-04-09T18:21:28.821Z,58.40
2023-04-09T18:23:56.043Z,58.50
2023-04-09T18:26:25.527Z,58.70
2023-04-09T18:28:57.745Z,58.70
2023-04-09T18:31:26.431Z,58.80
2023-04-09T18:33:53.833Z,58.80
2023-04-09T18:36:23.811Z,59.00
2023-04-09T18:38:52.450Z,59.10
2023-04-09T18:41:23.835Z,59.20
2023-04-09T18:43:54.190Z,59.20
2023-04-09T18:46:22.974Z,59.20
2023-04-09T18:48:51.678Z,59.30
2023-04-09T18:51:21.265Z,59.10
2023-04-09T18:53:53.750Z,59.00
2023-04-09T18:56:25.343Z,58.90
2023-04-09T18:58:55.776Z,58.90
2023-04-09T19:01:23.433Z,58.90
2023-04-09T19:03:54.007Z,59.00
2023-04-09T19:06:25.736Z,59.00
2023-04-09T19:09:04.041Z,59.10
2023-04-09T19:11:34.218Z,59.10
2023-04-09T19:14:02.368Z,58.90
2023-04-09T19:16:31.870Z,58.80
2023-04-09T19:19:00.957Z,59.10
2023-04-09T19:21:30.572Z,59.10
2023-04-09T19:24:05.544Z,59.10
2023-04-09T19:26:33.407Z,59.20
2023-04-09T19:29:03.812Z,59.20
2023-04-09T19:31:31.764Z,59.40
2023-04-09T19:33:58.915Z,59.50
2023-04-09T19:36:26.040Z,59.50
2023-04-09T19:38:53.426Z,59.50
2023-04-09T19:41:20.926Z,59.40
2023-04-09T19:43:48.110Z,59.30
2023-04-09T19:46:15.665Z,59.30
2023-04-09T19:48:43.009Z,59.30
2023-04-09T19:51:17.608Z,59.40
2023-04-09T19:53:48.215Z,59.50
2023-04-09T19:56:15.836Z,59.60
2023-04-09T19:58:43.811Z,59.30
2023-04-09T20:01:11.905Z,59.20
2023-04-09T20:03:39.357Z,58.90
2023-04-09T20:06:08.789Z,59.00
2023-04-09T20:08:37.058Z,59.10
2023-04-09T20:11:04.733Z,59.30
2023-04-09T20:13:32.038Z,59.50
2023-04-09T20:15:59.568Z,59.50
2023-04-09T20:18:26.868Z,59.70
2023-04-09T20:20:54.186Z,60.00
2023-04-09T20:23:21.540Z,60.50
2023-04-09T20:25:54.680Z,60.80
2023-04-09T20:28:22.285Z,60.60
2023-04-09T20:30:49.615Z,60.40
2023-04-09T20:33:18.233Z,61.00
2023-04-09T20:35:51.955Z,61.40
2023-04-09T20:38:26.681Z,61.90
2023-04-09T20:40:54.255Z,62.10
2023-04-09T20:43:21.615Z,62.40
2023-04-09T20:45:49.130Z,62.50
2023-04-09T20:48:16.806Z,62.80
2023-04-09T20:50:44.307Z,62.80
2023-04-09T20:53:12.292Z,62.80
2023-04-09T20:55:39.683Z,63.30
2023-04-09T20:58:08.145Z,63.50
2023-04-09T21:00:35.774Z,63.30
2023-04-09T21:03:03.452Z,63.60
2023-04-09T21:05:31.419Z,62.80
2023-04-09T21:07:58.597Z,63.00
2023-04-09T21:10:25.855Z,63.20
2023-04-09T21:12:53.176Z,63.10
2023-04-09T21:15:20.537Z,63.00
2023-04-09T21:17:47.737Z,62.70
2023-04-09T21:20:16.860Z,62.60
2023-04-09T21:22:47.424Z,62.50
2023-04-09T21:25:17.807Z,62.50
2023-04-09T21:27:47.059Z,62.80
2023-04-09T21:33:27.003Z,62.90
2023-04-09T21:35:55.651Z,62.70
2023-04-09T21:38:28.113Z,62.80
2023-04-09T21:40:55.567Z,63.00
2023-04-09T21:43:22.839Z,63.20
2023-04-09T21:45:50.246Z,63.50
2023-04-09T21:48:17.708Z,63.50
2023-04-09T21:50:46.982Z,63.20
2023-04-09T21:53:19.858Z,63.20
2023-04-09T21:55:49.916Z,63.20
2023-04-09T21:58:18.040Z,63.50
2023-04-09T22:00:52.975Z,63.60
2023-04-09T22:03:23.461Z,63.60
2023-04-09T22:05:53.814Z,63.50
2023-04-09T22:08:20.985Z,63.60
2023-04-09T22:10:51.209Z,63.70
2023-04-09T22:13:18.539Z,63.50
2023-04-09T22:15:45.763Z,63.50
2023-04-09T22:18:12.808Z,63.30
2023-04-09T22:20:40.229Z,63.30
2023-04-09T22:23:08.873Z,63.30
2023-04-09T22:25:36.743Z,63.10
2023-04-09T22:28:08.608Z,63.00
2023-04-09T22:30:35.786Z,63.50
2023-04-09T22:33:02.906Z,64.10
2023-04-09T22:35:29.942Z,64.00
2023-04-09T22:37:57.119Z,63.80
2023-04-09T22:40:24.942Z,63.80
2023-04-09T22:42:52.032Z,63.70
2023-04-09T22:45:19.730Z,63.60
2023-04-09T22:47:47.095Z,63.30
2023-04-09T22:50:20.587Z,63.20
2023-04-09T22:52:48.065Z,62.70
2023-04-09T22:55:16.686Z,62.50
2023-04-09T22:57:44.608Z,62.50
2023-04-09T23:00:12.560Z,62.60
2023-04-09T23:02:39.687Z,62.70
2023-04-09T23:05:07.855Z,63.00
2023-04-09T23:07:35.192Z,62.90
2023-04-09T23:10:02.416Z,62.60
2023-04-09T23:12:29.592Z,62.50
2023-04-09T23:14:56.760Z,62.60
2023-04-09T23:17:24.735Z,62.60
2023-04-09T23:19:54.975Z,62.30
2023-04-09T23:22:24.386Z,62.10
2023-04-09T23:24:51.734Z,61.90
2023-04-09T23:27:19.056Z,61.70
2023-04-09T23:29:46.924Z,61.80
2023-04-09T23:32:14.419Z,61.60
2023-04-09T23:34:41.823Z,61.50
2023-04-09T23:37:11.378Z,61.70
2023-04-09T23:39:41.150Z,61.90
2023-04-09T23:42:08.363Z,62.00
2023-04-09T23:44:35.771Z,62.00
2023-04-09T23:47:06.037Z,62.10
2023-04-09T23:49:34.532Z,62.20
2023-04-09T23:52:01.747Z,62.40
2023-04-09T23:54:32.554Z,62.20
2023-04-09T23:57:00.021Z,62.00
2023-04-09T23:59:27.232Z,61.80
